Time;durP1;ratioP1;P1;durP2;ratioP2;P2;SDS_P1;SDS_P2;PMS_P1;PMS_P2;Temp;Humidity;BMP_temperature;BMP_pressure;BME280_temperature;BME280_humidity;BME280_pressure;Samples;Min_cycle;Max_cycle;Signal;HPM_P1;HPM_P2
2021/03/29 00:26:59;;;;;;;10.27;7.53;;;;;;;;;;6256345;22;20024;-82
2021/03/29 00:29:46;;;;;;;10.57;6.60;;;;;;;;;;6169102;23;20031;-84
2021/03/29 00:33:27;;;;;;;8.85;5.80;;;;;;;;;;6170078;23;20032;-84
2021/03/29 00:46:44;;;;;;;10.55;6.93;;;;;;;;;;6262641;22;20031;-83
2021/03/29 00:53:14;;;;;;;9.27;6.32;;;;;;;;;;6207621;23;20044;-83
2021/03/29 00:56:41;;;;;;;9.60;6.10;;;;;;;;;;6269316;23;20004;-84
2021/03/29 00:59:53;;;;;;;9.40;5.88;;;;;;;;;;6267425;23;20071;-84
2021/03/29 01:03:16;;;;;;;9.23;6.07;;;;;;;;;;6258258;22;20003;-83
2021/03/29 01:09:52;;;;;;;8.93;5.32;;;;;;;;;;6005089;23;20002;-83
2021/03/29 01:16:28;;;;;;;7.32;5.82;;;;;;;;;;6015421;23;20085;-83
2021/03/29 01:20:14;;;;;;;6.55;5.32;;;;;;;;;;6033415;23;20478;-83
2021/03/29 01:30:29;;;;;;;8.00;6.32;;;;;;;;;;5883731;24;20027;-85
2021/03/29 01:33:33;;;;;;;9.77;5.75;;;;;;;;;;5853523;24;20006;-85
2021/03/29 01:36:43;;;;;;;10.68;6.63;;;;;;;;;;5905895;24;20017;-84
2021/03/29 01:39:21;;;;;;;7.88;6.10;;;;;;;;;;5973295;23;20014;-82
2021/03/29 01:42:20;;;;;;;7.30;6.05;;;;;;;;;;6011116;23;20003;-83
2021/03/29 01:51:20;;;;;;;9.77;6.10;;;;;;;;;;6017758;23;20051;-84
2021/03/29 01:54:04;;;;;;;;;;;;;;;;;;6060388;23;20061;-84
2021/03/29 01:57:30;;;;;;;9.02;6.22;;;;;;;;;;6123232;23;19921;-83
2021/03/29 02:04:23;;;;;;;10.13;5.93;;;;;;;;;;6029008;23;20027;-83
2021/03/29 02:08:02;;;;;;;8.63;5.93;;;;;;;;;;6041647;23;20037;-84
2021/03/29 02:15:10;;;;;;;6.97;5.80;;;;;;;;;;6064513;23;20070;-83
2021/03/29 02:22:07;;;;;;;8.93;5.45;;;;;;;;;;5992615;23;20081;-84
2021/03/29 02:25:20;;;;;;;7.20;5.25;;;;;;;;;;5994285;23;20024;-84
2021/03/29 02:28:34;;;;;;;6.70;4.85;;;;;;;;;;6034060;23;20003;-83
2021/03/29 02:31:06;;;;;;;7.03;4.88;;;;;;;;;;6015806;23;19998;-84
2021/03/29 03:03:47;;;;;;;9.18;5.60;;;;;;;;;;6251412;23;20011;-84
2021/03/29 03:06:45;;;;;;;7.82;5.45;;;;;;;;;;6273828;22;19996;-84
2021/03/29 03:15:51;;;;;;;8.30;6.20;;;;;;;;;;6197309;23;20076;-84
2021/03/29 03:22:36;;;;;;;8.98;5.40;;;;;;;;;;6181643;23;20000;-84
2021/03/29 03:26:11;;;;;;;8.63;5.72;;;;;;;;;;6180832;23;20005;-84
2021/03/29 03:29:06;;;;;;;8.63;6.22;;;;;;;;;;6175647;23;20507;-84
2021/03/29 03:36:13;;;;;;;8.10;5.85;;;;;;;;;;6152094;23;20063;-84
2021/03/29 03:39:29;;;;;;;10.32;6.10;;;;;;;;;;6094746;23;20095;-84
2021/03/29 03:43:02;;;;;;;7.63;6.07;;;;;;;;;;6083678;23;20027;-84
2021/03/29 03:45:47;;;;;;;9.55;5.88;;;;;;;;;;6012829;23;19995;-84
2021/03/29 03:51:49;;;;;;;8.65;5.85;;;;;;;;;;6039624;23;20032;-84
2021/03/29 04:16:44;;;;;;;8.60;5.55;;;;;;;;;;6064817;23;20074;-83
2021/03/29 04:19:47;;;;;;;7.97;5.30;;;;;;;;;;6041375;23;19999;-84
2021/03/29 04:26:17;;;;;;;8.40;5.40;;;;;;;;;;6178682;23;20112;-85
2021/03/29 04:29:19;;;;;;;;;;;;;;;;;;6236740;23;20004;-84
2021/03/29 04:32:25;;;;;;;8.77;5.35;;;;;;;;;;6199241;23;19922;-83
2021/03/29 04:48:51;;;;;;;8.38;5.70;;;;;;;;;;6242475;23;19903;-84
2021/03/29 05:21:08;;;;;;;10.32;6.13;;;;;;;;;;6264498;22;20027;-81
2021/03/29 05:23:38;;;;;;;9.00;6.15;;;;;;;;;;6259051;23;20016;-80
2021/03/29 05:26:06;;;;;;;11.85;5.60;;;;;;;;;;6260207;23;19996;-81
2021/03/29 05:28:32;;;;;;;10.43;5.95;;;;;;;;;;6260697;23;20030;-81
2021/03/29 05:30:57;;;;;;;11.70;6.50;;;;;;;;;;6234961;23;20000;-80
2021/03/29 05:33:25;;;;;;;10.85;6.00;;;;;;;;;;6258221;23;19996;-81
2021/03/29 05:35:51;;;;;;;10.15;6.25;;;;;;;;;;6258525;23;20007;-81
2021/03/29 05:38:16;;;;;;;11.05;5.88;;;;;;;;;;6208950;23;20000;-80
2021/03/29 05:40:43;;;;;;;13.18;6.28;;;;;;;;;;6262532;22;20004;-81
2021/03/29 15:03:54;;;;;;;6.18;2.33;;;;;;;;;;6244553;23;20027;-86
2021/03/29 15:06:28;;;;;;;4.70;2.22;;;;;;;;;;6218323;23;20004;-86
2021/03/29 15:08:54;;;;;;;3.33;1.90;;;;;;;;;;6219908;23;20011;-85
2021/03/29 15:11:20;;;;;;;5.25;3.25;;;;;;;;;;6243396;23;20082;-86
2021/03/29 15:13:46;;;;;;;4.03;2.63;;;;;;;;;;6242899;22;20046;-84
2021/03/29 15:16:11;;;;;;;5.03;1.95;;;;;;;;;;6191963;23;20423;-85
2021/03/29 15:18:37;;;;;;;4.45;1.90;;;;;;;;;;6241982;23;20003;-84
2021/03/29 15:21:03;;;;;;;3.50;2.00;;;;;;;;;;6243294;23;20018;-84
2021/03/29 15:23:28;;;;;;;4.00;2.20;;;;;;;;;;6217640;23;20004;-83
2021/03/29 15:25:54;;;;;;;4.15;2.20;;;;;;;;;;6242864;23;20024;-83
2021/03/29 15:28:21;;;;;;;6.07;2.67;;;;;;;;;;6243268;23;20074;-83
2021/03/29 15:30:48;;;;;;;3.15;2.10;;;;;;;;;;6218008;23;20000;-83
2021/03/29 15:33:13;;;;;;;4.97;2.30;;;;;;;;;;6218354;23;19997;-83
2021/03/29 15:35:39;;;;;;;5.18;2.70;;;;;;;;;;6193975;23;20011;-83
2021/03/29 15:38:05;;;;;;;3.78;2.20;;;;;;;;;;6194486;23;20000;-84
2021/03/29 15:40:31;;;;;;;6.50;2.13;;;;;;;;;;6219678;23;20442;-83
2021/03/29 15:42:56;;;;;;;5.50;2.17;;;;;;;;;;6219749;23;20004;-83
2021/03/29 15:45:22;;;;;;;4.60;2.03;;;;;;;;;;6245425;23;20083;-83
2021/03/29 15:47:48;;;;;;;5.43;2.05;;;;;;;;;;6219460;23;20000;-83
2021/03/29 15:50:13;;;;;;;3.75;2.50;;;;;;;;;;6244959;23;20434;-83
2021/03/29 15:52:39;;;;;;;4.55;1.90;;;;;;;;;;6244919;23;20000;-84
2021/03/29 15:55:05;;;;;;;4.43;2.03;;;;;;;;;;6194145;23;20004;-83
2021/03/29 15:57:42;;;;;;;3.50;2.03;;;;;;;;;;6219711;23;20012;-83
2021/03/29 16:00:12;;;;;;;3.88;2.03;;;;;;;;;;6222173;23;20002;-82
2021/03/29 16:02:45;;;;;;;6.40;1.92;;;;;;;;;;6194392;23;20016;-84
2021/03/29 16:05:12;;;;;;;5.07;2.33;;;;;;;;;;6245113;23;20066;-84
2021/03/29 16:07:37;;;;;;;5.80;2.00;;;;;;;;;;6244949;23;20023;-83
2021/03/29 16:10:04;;;;;;;5.32;1.80;;;;;;;;;;6218370;23;20004;-82
2021/03/29 16:12:30;;;;;;;3.47;1.98;;;;;;;;;;6193581;23;19999;-84
2021/03/29 16:14:55;;;;;;;4.45;2.20;;;;;;;;;;6192751;23;20003;-84
2021/03/29 16:17:22;;;;;;;5.68;2.00;;;;;;;;;;6215896;23;20058;-82
2021/03/29 16:19:47;;;;;;;4.97;2.65;;;;;;;;;;6192087;23;20065;-85
2021/03/29 16:22:13;;;;;;;4.07;2.47;;;;;;;;;;6192130;23;20053;-84
2021/03/29 16:24:40;;;;;;;6.15;1.90;;;;;;;;;;6216711;23;20000;-84
2021/03/29 16:27:05;;;;;;;6.25;2.10;;;;;;;;;;6193252;23;20457;-84
2021/03/29 16:29:38;;;;;;;4.68;2.08;;;;;;;;;;6216670;23;20004;-85
2021/03/29 16:32:08;;;;;;;4.78;1.98;;;;;;;;;;6242813;23;20061;-84
2021/03/29 16:34:33;;;;;;;5.77;2.40;;;;;;;;;;6191242;23;20003;-84
2021/03/29 16:36:59;;;;;;;5.50;2.25;;;;;;;;;;6193156;23;19997;-84
2021/03/29 16:39:24;;;;;;;4.70;2.10;;;;;;;;;;6217912;23;20000;-84
2021/03/29 16:41:50;;;;;;;5.28;2.30;;;;;;;;;;6192131;23;20442;-84
2021/03/29 16:44:15;;;;;;;5.18;1.95;;;;;;;;;;6216655;23;20004;-84
2021/03/29 16:46:41;;;;;;;5.93;2.40;;;;;;;;;;6193191;23;20008;-85
2021/03/29 16:49:06;;;;;;;5.65;2.10;;;;;;;;;;6192948;23;20041;-85
2021/03/29 16:51:31;;;;;;;3.45;2.40;;;;;;;;;;6193465;23;20011;-86
2021/03/29 16:53:57;;;;;;;7.22;2.30;;;;;;;;;;6216363;23;20425;-85
2021/03/29 16:56:23;;;;;;;4.03;2.20;;;;;;;;;;6217934;23;20007;-86
2021/03/29 16:58:49;;;;;;;4.93;2.53;;;;;;;;;;6216157;23;20070;-85
2021/03/29 17:01:15;;;;;;;4.43;2.50;;;;;;;;;;6192254;23;20016;-85
2021/03/29 17:03:41;;;;;;;5.15;2.22;;;;;;;;;;6192302;23;20011;-86
2021/03/29 17:06:07;;;;;;;9.60;2.20;;;;;;;;;;6191572;23;20061;-86
2021/03/29 17:08:33;;;;;;;3.83;2.17;;;;;;;;;;6190529;23;20046;-86
2021/03/29 17:10:58;;;;;;;6.35;2.72;;;;;;;;;;6242546;23;20319;-87
2021/03/29 17:13:24;;;;;;;5.10;2.25;;;;;;;;;;6227949;23;20003;-86
2021/03/29 20:12:13;;;;;;;8.68;5.40;;;;;;;;;;6258359;22;20035;-81
2021/03/29 20:14:38;;;;;;;;;;;;;;;;;;6253654;23;20004;-81
2021/03/29 20:17:05;;;;;;;10.40;5.22;;;;;;;;;;6254635;23;19930;-81
2021/03/29 20:19:36;;;;;;;9.43;5.15;;;;;;;;;;6232221;23;20003;-83
2021/03/29 20:22:02;;;;;;;10.70;5.10;;;;;;;;;;6262428;23;20120;-83
2021/03/29 20:24:32;;;;;;;7.80;5.03;;;;;;;;;;6189653;23;20008;-83
2021/03/29 20:27:01;;;;;;;9.57;4.70;;;;;;;;;;6261326;23;20059;-84
2021/03/29 20:29:29;;;;;;;10.07;6.20;;;;;;;;;;6232644;23;20246;-83
2021/03/29 20:31:55;;;;;;;9.27;5.28;;;;;;;;;;6231762;23;20015;-82
2021/03/29 20:34:30;;;;;;;8.82;5.57;;;;;;;;;;6260535;22;20071;-82
2021/03/29 20:37:02;;;;;;;9.13;5.55;;;;;;;;;;6255893;23;20007;-82
2021/03/29 20:39:30;;;;;;;8.40;5.40;;;;;;;;;;6259256;22;20008;-83
2021/03/29 20:41:55;;;;;;;8.18;5.70;;;;;;;;;;6231408;23;20042;-81
2021/03/29 20:44:23;;;;;;;7.18;5.30;;;;;;;;;;6259088;23;20008;-84
2021/03/29 20:46:52;;;;;;;9.27;5.57;;;;;;;;;;6263806;23;20004;-84
2021/03/29 20:49:37;;;;;;;9.30;5.50;;;;;;;;;;6259179;23;20000;-82
2021/03/29 20:52:09;;;;;;;8.15;5.55;;;;;;;;;;6234501;23;20007;-83
2021/03/29 20:54:45;;;;;;;11.07;6.38;;;;;;;;;;6262700;23;19996;-83
2021/03/29 20:57:33;;;;;;;8.85;6.18;;;;;;;;;;6262635;23;20083;-84
2021/03/29 20:59:59;;;;;;;;;;;;;;;;;;6254703;22;20011;-82
2021/03/29 21:02:27;;;;;;;13.05;6.40;;;;;;;;;;6255825;22;20318;-81
2021/03/29 21:04:53;;;;;;;9.10;6.40;;;;;;;;;;6254261;23;20064;-82
2021/03/29 21:07:25;;;;;;;7.78;6.30;;;;;;;;;;6255364;23;20034;-82
2021/03/29 21:09:51;;;;;;;13.60;6.35;;;;;;;;;;6233031;23;20759;-82
2021/03/29 21:12:17;;;;;;;12.13;6.53;;;;;;;;;;6231555;22;20020;-83
2021/03/29 21:14:49;;;;;;;8.68;6.15;;;;;;;;;;6255730;22;20007;-83
2021/03/29 21:17:15;;;;;;;10.60;6.25;;;;;;;;;;6262997;22;20063;-83
2021/03/29 21:19:43;;;;;;;10.48;6.63;;;;;;;;;;6263069;22;19996;-83
2021/03/29 21:22:11;;;;;;;13.90;7.38;;;;;;;;;;6286225;22;20000;-83
2021/03/29 21:24:40;;;;;;;7.68;6.30;;;;;;;;;;6263874;22;20000;-84
2021/03/29 21:27:08;;;;;;;10.88;6.85;;;;;;;;;;6190181;23;20004;-83
2021/03/29 21:30:02;;;;;;;11.52;7.10;;;;;;;;;;6265420;23;20003;-83
2021/03/29 21:32:36;;;;;;;12.82;8.00;;;;;;;;;;6223220;23;20000;-83
2021/03/29 21:35:06;;;;;;;11.25;8.13;;;;;;;;;;6266199;23;19983;-83
2021/03/29 21:37:36;;;;;;;9.95;7.80;;;;;;;;;;6240307;23;20004;-83
2021/03/29 21:40:19;;;;;;;16.33;7.90;;;;;;;;;;6263287;22;20000;-82
2021/03/29 21:42:46;;;;;;;9.73;7.05;;;;;;;;;;6236665;23;20320;-83
2021/03/29 21:45:18;;;;;;;11.52;7.30;;;;;;;;;;6238526;23;20022;-83
2021/03/29 21:47:46;;;;;;;12.43;8.18;;;;;;;;;;6226051;23;20035;-84
2021/03/29 21:50:14;;;;;;;9.48;7.53;;;;;;;;;;6264101;23;19996;-83
2021/03/29 21:53:19;;;;;;;11.63;8.23;;;;;;;;;;6264868;23;20000;-84
2021/03/29 21:56:38;;;;;;;11.30;7.95;;;;;;;;;;6270334;22;20000;-84
2021/03/29 21:59:41;;;;;;;8.75;7.07;;;;;;;;;;6268165;23;20000;-82
2021/03/29 22:02:44;;;;;;;10.73;7.05;;;;;;;;;;6248025;23;20015;-83
2021/03/29 22:05:19;;;;;;;11.07;7.50;;;;;;;;;;6269120;23;20015;-83
2021/03/29 22:07:54;;;;;;;12.55;7.30;;;;;;;;;;6270361;22;19980;-84
2021/03/29 22:10:47;;;;;;;9.43;6.93;;;;;;;;;;6270428;23;20050;-84
2021/03/29 22:15:51;;;;;;;11.20;7.32;;;;;;;;;;6299088;22;20019;-84
2021/03/29 22:18:27;;;;;;;10.30;7.30;;;;;;;;;;6297913;22;20019;-82
2021/03/29 22:21:14;;;;;;;9.90;7.90;;;;;;;;;;6251690;22;19999;-84
2021/03/29 22:23:47;;;;;;;11.15;7.70;;;;;;;;;;6294086;22;20039;-83
2021/03/29 22:26:22;;;;;;;11.93;7.30;;;;;;;;;;6299279;22;20004;-84
2021/03/29 22:29:18;;;;;;;9.40;6.85;;;;;;;;;;6300093;22;20014;-84
2021/03/29 22:32:03;;;;;;;9.35;7.00;;;;;;;;;;6297005;22;20034;-83
2021/03/29 22:34:55;;;;;;;10.38;7.18;;;;;;;;;;6293926;22;20026;-82
2021/03/29 22:43:59;;;;;;;12.30;8.13;;;;;;;;;;6091309;23;20017;-84
2021/03/29 22:46:42;;;;;;;;;;;;;;;;;;6091878;23;20031;-84
2021/03/29 22:50:24;;;;;;;10.20;7.50;;;;;;;;;;6063368;23;19914;-84
2021/03/29 22:53:03;;;;;;;11.73;8.13;;;;;;;;;;6061277;23;20015;-83
2021/03/29 22:55:37;;;;;;;12.57;8.30;;;;;;;;;;6060250;23;20007;-83
2021/03/29 22:58:06;;;;;;;11.38;9.07;;;;;;;;;;6034456;23;20067;-83
2021/03/29 23:00:44;;;;;;;11.88;7.82;;;;;;;;;;6036660;23;20014;-83
2021/03/29 23:03:27;;;;;;;10.93;8.10;;;;;;;;;;6046575;23;20011;-83
2021/03/29 23:06:00;;;;;;;11.13;8.43;;;;;;;;;;6059258;23;20007;-83
2021/03/29 23:08:39;;;;;;;9.90;8.10;;;;;;;;;;6039604;23;20004;-83
2021/03/29 23:11:11;;;;;;;11.10;8.13;;;;;;;;;;6058797;23;20008;-83
2021/03/29 23:13:43;;;;;;;14.43;8.63;;;;;;;;;;6041507;23;20011;-83
2021/03/29 23:16:31;;;;;;;11.43;8.38;;;;;;;;;;6006973;23;20467;-83
2021/03/29 23:19:02;;;;;;;15.13;8.30;;;;;;;;;;6182899;23;20004;-83
2021/03/29 23:21:53;;;;;;;10.00;8.20;;;;;;;;;;6261853;23;20023;-83
2021/03/29 23:24:28;;;;;;;12.60;8.30;;;;;;;;;;6266411;23;20004;-83
2021/03/29 23:27:14;;;;;;;11.07;8.73;;;;;;;;;;6270996;23;19988;-84
2021/03/29 23:30:03;;;;;;;10.90;8.10;;;;;;;;;;6271122;23;19996;-83
2021/03/29 23:32:50;;;;;;;11.18;8.52;;;;;;;;;;6267433;23;20004;-84
2021/03/29 23:35:26;;;;;;;12.98;8.00;;;;;;;;;;6270277;23;20083;-82
2021/03/29 23:37:54;;;;;;;11.95;8.18;;;;;;;;;;6269225;23;19996;-84
2021/03/29 23:43:54;;;;;;;10.90;8.00;;;;;;;;;;6174375;23;20036;-83
2021/03/29 23:46:41;;;;;;;12.27;8.10;;;;;;;;;;6197106;23;20005;-83
2021/03/29 23:49:15;;;;;;;12.38;8.18;;;;;;;;;;6198879;23;20006;-82
2021/03/29 23:51:42;;;;;;;9.70;7.97;;;;;;;;;;6170719;23;20061;-83
2021/03/29 23:54:08;;;;;;;11.88;7.88;;;;;;;;;;6173627;23;20017;-82
2021/03/29 23:56:35;;;;;;;12.32;7.18;;;;;;;;;;6177308;23;20005;-84
2021/03/29 23:59:02;;;;;;;12.93;8.35;;;;;;;;;;6177727;23;20006;-82
